Terminal Aerodrome Forecast
Issued by NWS Grand Rapids, MI

Home | Current Version | Previous Version | Text Only | Print | Product List | Glossary On
Versions: 1 2 3 4 5 6 7 8 9 10 11 12 13 14 15 16 17 18 19 20 21
327
FTUS43 KGRR 061731
TAFGRR
TAF
KGRR 061731Z 0618/0718 24008KT P6SM FEW250
     FM071200 26009KT P6SM -SHRA BKN025
     FM071500 31012KT P6SM -SHRA BKN025
     FM071700 34015KT P6SM VCSH BKN090=

USA.gov is the U.S. government's official web portal to all federal, state and local government web resources and services.